Riverdale, Illinois
Current Conditions -  °F | °C
As of 3:15 PM on Sunday 23 Nov 2014 (Local Time) from KIGQ Reporting Station
Light Rain Light Rain  
Wind Chill: 51°   Ceiling: 1300
Heat Index: 51°   Visibility: 5mi
Dew Point: 49°   Wind: 8mph
Humidity: 96%   Direction: 150°SSE
Pressure: 29.5"   Gusts: NA
Location:  41.63°N, 87.63°W
Report Text: KIGQ 232115Z AUTO 15007KT 5SM -RA SCT008 OVC013 10/10 A2950 RMK AO2 P0001 T01030097
Loading
Personal Weather Stations






























Interactive Weather Map New forecast layout! Learn more

10-Day Weather Forecast

Advertisements
Track Severe Weather on mobile